Time;durP1;ratioP1;P1;durP2;ratioP2;P2;SDS_P1;SDS_P2;PMS_P1;PMS_P2;Temp;Humidity;BMP_temperature;BMP_pressure;BME280_temperature;BME280_humidity;BME280_pressure;Samples;Min_cycle;Max_cycle;Signal;HPM_P1;HPM_P2
2023/08/19 00:00:54;;;;;;;242.70;223.83;;;;;;;;;;5010788;28;20028;-58
2023/08/19 00:03:19;;;;;;;271.03;249.57;;;;;;;;;;5007803;28;20044;-61
2023/08/19 00:05:44;;;;;;;267.13;245.60;;;;;;;;;;5009475;28;20371;-60
2023/08/19 00:08:10;;;;;;;245.45;226.68;;;;;;;;;;5009170;28;20050;-59
2023/08/19 00:10:35;;;;;;;336.57;310.27;;;;;;;;;;5009348;28;20033;-58
2023/08/19 00:13:00;;;;;;;246.17;226.33;;;;;;;;;;5011173;28;20091;-58
2023/08/19 00:15:25;;;;;;;298.50;274.60;;;;;;;;;;5009256;28;20030;-58
2023/08/19 00:17:50;;;;;;;321.40;295.97;;;;;;;;;;5010345;28;20037;-58
2023/08/19 00:20:15;;;;;;;253.10;233.77;;;;;;;;;;5010898;28;20033;-58
2023/08/19 00:22:41;;;;;;;267.67;245.77;;;;;;;;;;5011874;28;20014;-59
2023/08/19 00:25:06;;;;;;;201.73;186.90;;;;;;;;;;5013830;28;20060;-58
2023/08/19 00:27:31;;;;;;;214.30;197.85;;;;;;;;;;5013297;28;20056;-59
2023/08/19 00:29:56;;;;;;;257.83;238.53;;;;;;;;;;5020747;28;20018;-58
2023/08/19 00:32:21;;;;;;;266.93;246.07;;;;;;;;;;5018693;28;20050;-58
2023/08/19 00:34:47;;;;;;;191.33;176.87;;;;;;;;;;5014252;28;20105;-60
2023/08/19 00:37:12;;;;;;;232.83;214.63;;;;;;;;;;5013614;28;20028;-57
2023/08/19 00:39:37;;;;;;;207.80;191.70;;;;;;;;;;5010805;28;20818;-57
2023/08/19 00:42:03;;;;;;;224.23;206.63;;;;;;;;;;5015192;28;20014;-60
2023/08/19 00:44:30;;;;;;;189.10;174.38;;;;;;;;;;5015094;28;20030;-58
2023/08/19 00:46:55;;;;;;;219.05;201.90;;;;;;;;;;5010144;28;20076;-57
2023/08/19 00:49:20;;;;;;;230.10;211.57;;;;;;;;;;5017280;28;20035;-58
2023/08/19 00:51:45;;;;;;;311.37;285.60;;;;;;;;;;5016831;28;20366;-59
2023/08/19 00:54:10;;;;;;;247.55;229.27;;;;;;;;;;5015302;28;20473;-58
2023/08/19 00:56:36;;;;;;;179.13;165.40;;;;;;;;;;5017400;28;20045;-58
2023/08/19 00:59:01;;;;;;;263.77;242.93;;;;;;;;;;5018086;28;20109;-57
2023/08/19 01:01:26;;;;;;;225.77;208.43;;;;;;;;;;5012617;28;20544;-59
2023/08/19 01:03:51;;;;;;;286.87;264.80;;;;;;;;;;5015101;28;20527;-57
2023/08/19 01:06:25;;;;;;;184.00;170.63;;;;;;;;;;5013572;28;20053;-64
2023/08/19 01:09:08;;;;;;;227.70;210.57;;;;;;;;;;5013760;28;20481;-58
2023/08/19 01:11:36;;;;;;;290.90;269.25;;;;;;;;;;5013366;28;20040;-59
2023/08/19 01:14:08;;;;;;;206.77;191.68;;;;;;;;;;5017730;28;20428;-57
2023/08/19 01:16:33;;;;;;;;;;;;;;;;;;5013068;28;20033;-58
2023/08/19 01:18:59;;;;;;;165.23;152.63;;;;;;;;;;5021988;28;19912;-57
2023/08/19 01:21:25;;;;;;;143.48;132.98;;;;;;;;;;5018999;28;20010;-57
2023/08/19 01:23:51;;;;;;;159.50;147.27;;;;;;;;;;5016667;28;20029;-59
2023/08/19 01:26:17;;;;;;;156.48;144.50;;;;;;;;;;5013925;28;20507;-62
2023/08/19 01:28:42;;;;;;;261.50;240.20;;;;;;;;;;5013687;28;20101;-59
2023/08/19 01:31:09;;;;;;;212.10;194.90;;;;;;;;;;5018205;28;20049;-59
2023/08/19 01:33:35;;;;;;;237.18;219.27;;;;;;;;;;5011589;28;20393;-58
2023/08/19 01:36:11;;;;;;;253.35;232.48;;;;;;;;;;5013378;28;20021;-59
2023/08/19 01:38:43;;;;;;;211.07;195.38;;;;;;;;;;5016553;28;20032;-60
2023/08/19 01:41:09;;;;;;;171.38;157.93;;;;;;;;;;5013150;28;20029;-61
2023/08/19 01:43:35;;;;;;;230.57;212.55;;;;;;;;;;5014587;28;20053;-59
2023/08/19 01:46:00;;;;;;;269.70;250.25;;;;;;;;;;5009200;28;20730;-59
2023/08/19 01:48:25;;;;;;;182.70;168.17;;;;;;;;;;5016132;28;20029;-59
2023/08/19 01:50:50;;;;;;;216.98;200.93;;;;;;;;;;5016498;28;20477;-59
2023/08/19 01:53:16;;;;;;;181.10;167.37;;;;;;;;;;5015619;28;20072;-59
2023/08/19 01:55:41;;;;;;;203.43;187.83;;;;;;;;;;5011636;28;20046;-59
2023/08/19 01:58:06;;;;;;;289.10;265.53;;;;;;;;;;5019060;28;20076;-58
2023/08/19 02:00:31;;;;;;;161.25;149.00;;;;;;;;;;5011555;28;20393;-59
2023/08/19 02:02:56;;;;;;;259.27;240.43;;;;;;;;;;5018749;28;20041;-59
2023/08/19 02:05:21;;;;;;;194.50;179.23;;;;;;;;;;5013841;28;20101;-58
2023/08/19 02:07:47;;;;;;;209.47;193.27;;;;;;;;;;5016649;28;20018;-60
2023/08/19 02:10:12;;;;;;;221.80;205.07;;;;;;;;;;5014808;28;20518;-59
2023/08/19 02:12:37;;;;;;;211.00;193.45;;;;;;;;;;5012894;28;20018;-58
2023/08/19 02:15:03;;;;;;;187.63;173.30;;;;;;;;;;5012065;28;20014;-59
2023/08/19 02:17:28;;;;;;;156.20;144.30;;;;;;;;;;5015681;28;20491;-58
2023/08/19 02:19:53;;;;;;;183.20;169.73;;;;;;;;;;5016086;28;20029;-59
2023/08/19 02:22:20;;;;;;;205.67;189.90;;;;;;;;;;5021789;28;20472;-58
2023/08/19 02:24:46;;;;;;;168.63;155.10;;;;;;;;;;5007739;28;20017;-60
2023/08/19 02:27:11;;;;;;;210.40;193.70;;;;;;;;;;5004334;28;20022;-59
2023/08/19 02:29:36;;;;;;;232.93;214.37;;;;;;;;;;5002634;28;20030;-58
2023/08/19 02:32:01;;;;;;;;;;;;;;;;;;5009562;28;20117;-63
2023/08/19 02:34:26;;;;;;;162.27;150.52;;;;;;;;;;5008342;28;19909;-59
2023/08/19 02:36:52;;;;;;;189.00;175.83;;;;;;;;;;5002982;28;20265;-60
2023/08/19 02:39:17;;;;;;;181.57;167.57;;;;;;;;;;4994204;28;21747;-61
2023/08/19 02:41:42;;;;;;;282.95;259.83;;;;;;;;;;5006768;28;20017;-60
2023/08/19 02:44:07;;;;;;;177.23;163.27;;;;;;;;;;5011679;28;20466;-60
2023/08/19 02:46:32;;;;;;;227.97;210.53;;;;;;;;;;5010271;28;20022;-57
2023/08/19 02:48:57;;;;;;;274.73;253.23;;;;;;;;;;5005381;28;20389;-58
2023/08/19 02:51:23;;;;;;;266.63;245.43;;;;;;;;;;4999371;28;20465;-58
2023/08/19 02:53:48;;;;;;;242.73;225.03;;;;;;;;;;5010064;28;20551;-58
2023/08/19 02:56:13;;;;;;;326.30;296.00;;;;;;;;;;5002969;28;20034;-57
2023/08/19 02:58:38;;;;;;;267.00;246.40;;;;;;;;;;5013993;28;20128;-58
2023/08/19 03:01:03;;;;;;;294.67;271.77;;;;;;;;;;5010686;28;20026;-60
2023/08/19 03:03:28;;;;;;;323.97;297.83;;;;;;;;;;5008216;28;20022;-59
2023/08/19 03:05:57;;;;;;;255.53;235.30;;;;;;;;;;5001807;28;20022;-59
2023/08/19 03:08:22;;;;;;;317.30;292.45;;;;;;;;;;5007976;28;20076;-57
2023/08/19 03:10:48;;;;;;;310.23;287.60;;;;;;;;;;5008339;28;20026;-59
2023/08/19 03:13:13;;;;;;;367.37;339.40;;;;;;;;;;5010380;28;20034;-58
2023/08/19 03:15:38;;;;;;;381.27;351.77;;;;;;;;;;5005430;28;20018;-58
2023/08/19 03:18:04;;;;;;;352.55;325.52;;;;;;;;;;5009535;28;20014;-61
2023/08/19 03:20:29;;;;;;;289.15;268.13;;;;;;;;;;5007658;28;20040;-58
2023/08/19 03:22:54;;;;;;;278.57;256.57;;;;;;;;;;5010862;28;20479;-57
2023/08/19 03:25:20;;;;;;;310.73;286.67;;;;;;;;;;5002724;28;20029;-59
2023/08/19 03:27:45;;;;;;;274.95;254.60;;;;;;;;;;5009102;28;20561;-58
2023/08/19 03:30:10;;;;;;;299.23;276.80;;;;;;;;;;5006892;28;20022;-60
2023/08/19 03:32:35;;;;;;;316.70;292.10;;;;;;;;;;5007338;28;20411;-58
2023/08/19 03:35:00;;;;;;;301.97;278.50;;;;;;;;;;5013202;28;20092;-58
2023/08/19 03:37:26;;;;;;;352.57;321.80;;;;;;;;;;5003514;28;20481;-58
2023/08/19 03:39:51;;;;;;;331.20;305.02;;;;;;;;;;5012065;28;20030;-58
2023/08/19 03:42:16;;;;;;;361.27;335.10;;;;;;;;;;5012816;28;20034;-59
2023/08/19 03:44:42;;;;;;;339.73;311.35;;;;;;;;;;5010909;28;20535;-57
2023/08/19 03:47:10;;;;;;;315.07;290.80;;;;;;;;;;5013425;28;20022;-58
2023/08/19 03:49:35;;;;;;;361.77;333.95;;;;;;;;;;5012878;28;20080;-58
2023/08/19 03:52:00;;;;;;;342.20;314.83;;;;;;;;;;5011471;28;20488;-58
2023/08/19 03:54:25;;;;;;;314.30;289.73;;;;;;;;;;5014668;28;20101;-58
2023/08/19 03:56:50;;;;;;;304.45;280.52;;;;;;;;;;5013332;28;20025;-60
2023/08/19 03:59:15;;;;;;;355.60;325.17;;;;;;;;;;5019200;28;20193;-59
2023/08/19 04:01:41;;;;;;;301.53;279.67;;;;;;;;;;5011345;28;20041;-60
2023/08/19 04:04:07;;;;;;;333.20;305.90;;;;;;;;;;5015898;28;20025;-58
2023/08/19 04:06:32;;;;;;;349.23;321.88;;;;;;;;;;5019038;28;20041;-59
2023/08/19 04:08:57;;;;;;;296.30;273.65;;;;;;;;;;5015862;28;20026;-57
2023/08/19 04:11:22;;;;;;;356.77;329.57;;;;;;;;;;5014715;28;20087;-59
2023/08/19 04:13:48;;;;;;;288.60;265.83;;;;;;;;;;5008436;28;20037;-58
2023/08/19 04:16:13;;;;;;;301.13;277.17;;;;;;;;;;5017582;28;20404;-59
2023/08/19 04:18:38;;;;;;;329.27;304.07;;;;;;;;;;5015832;28;20029;-57
2023/08/19 04:21:04;;;;;;;334.70;309.67;;;;;;;;;;5011201;28;20022;-58
2023/08/19 04:23:29;;;;;;;363.58;336.10;;;;;;;;;;5015455;28;20030;-59
2023/08/19 04:25:55;;;;;;;365.70;338.13;;;;;;;;;;5014908;28;20440;-57
2023/08/19 04:28:20;;;;;;;350.40;323.67;;;;;;;;;;5009204;28;20546;-59
2023/08/19 04:30:45;;;;;;;319.17;295.37;;;;;;;;;;5007781;28;20109;-60
2023/08/19 04:33:10;;;;;;;317.70;294.00;;;;;;;;;;5002152;28;20440;-59
2023/08/19 04:35:36;;;;;;;266.70;246.97;;;;;;;;;;5010270;28;20032;-59
2023/08/19 04:38:01;;;;;;;371.87;342.87;;;;;;;;;;5008685;28;20092;-59
2023/08/19 04:40:28;;;;;;;347.67;320.98;;;;;;;;;;5006501;28;20076;-59
2023/08/19 04:42:57;;;;;;;334.33;308.50;;;;;;;;;;5004596;28;20018;-59
2023/08/19 04:45:22;;;;;;;320.77;295.73;;;;;;;;;;5010105;28;20076;-59
2023/08/19 04:47:47;;;;;;;335.17;308.17;;;;;;;;;;5006281;28;20034;-59
2023/08/19 04:50:12;;;;;;;312.43;287.50;;;;;;;;;;5001959;28;20105;-59
2023/08/19 04:52:37;;;;;;;275.50;255.50;;;;;;;;;;5002898;28;20027;-59
2023/08/19 04:55:04;;;;;;;411.30;380.27;;;;;;;;;;5000347;28;20053;-60
2023/08/19 04:57:29;;;;;;;345.73;317.70;;;;;;;;;;5003177;28;20106;-59
2023/08/19 04:59:54;;;;;;;370.40;339.73;;;;;;;;;;4999701;28;20687;-59
2023/08/19 05:02:19;;;;;;;249.00;230.43;;;;;;;;;;5007403;28;20030;-59
2023/08/19 05:04:45;;;;;;;353.33;325.57;;;;;;;;;;5008342;28;20551;-60
2023/08/19 05:07:10;;;;;;;299.17;273.30;;;;;;;;;;5007865;28;20037;-58
2023/08/19 05:09:35;;;;;;;293.27;271.17;;;;;;;;;;5009986;28;20044;-59
2023/08/19 05:12:00;;;;;;;317.50;289.87;;;;;;;;;;5005170;28;20022;-58
2023/08/19 05:14:25;;;;;;;339.58;313.83;;;;;;;;;;5010608;28;20520;-59
2023/08/19 05:16:50;;;;;;;363.60;336.03;;;;;;;;;;5011869;28;20021;-59
2023/08/19 05:19:17;;;;;;;287.07;263.93;;;;;;;;;;5008249;28;20025;-59
2023/08/19 05:21:42;;;;;;;413.85;379.33;;;;;;;;;;5010983;28;20052;-59
2023/08/19 05:24:08;;;;;;;302.43;279.97;;;;;;;;;;5006887;28;20482;-60
2023/08/19 05:26:33;;;;;;;271.45;251.77;;;;;;;;;;5010339;28;20030;-58
2023/08/19 05:28:59;;;;;;;267.03;246.93;;;;;;;;;;5008889;28;20030;-59
2023/08/19 05:31:24;;;;;;;343.80;319.35;;;;;;;;;;5011041;28;20334;-58
2023/08/19 05:33:49;;;;;;;351.07;324.47;;;;;;;;;;5011391;28;20021;-58
2023/08/19 05:36:14;;;;;;;322.97;299.00;;;;;;;;;;5013823;28;20378;-59
2023/08/19 05:38:40;;;;;;;366.93;337.30;;;;;;;;;;5003290;28;20018;-60
2023/08/19 05:41:05;;;;;;;383.77;353.37;;;;;;;;;;5006313;28;20473;-58
2023/08/19 05:43:30;;;;;;;290.97;267.77;;;;;;;;;;5007880;28;20088;-59
2023/08/19 05:45:57;;;;;;;370.00;342.17;;;;;;;;;;5009109;28;20030;-58
2023/08/19 05:48:22;;;;;;;435.73;402.35;;;;;;;;;;5000987;28;20022;-59
2023/08/19 05:50:47;;;;;;;383.43;354.27;;;;;;;;;;5008724;28;20084;-59
2023/08/19 05:53:13;;;;;;;409.87;374.13;;;;;;;;;;5005231;28;20508;-60
2023/08/19 05:55:38;;;;;;;370.23;342.03;;;;;;;;;;5007166;28;20152;-59
2023/08/19 05:58:03;;;;;;;413.77;382.57;;;;;;;;;;4998248;28;20403;-59
2023/08/19 06:00:28;;;;;;;386.52;351.52;;;;;;;;;;4999609;28;20032;-61
2023/08/19 06:02:53;;;;;;;350.57;324.77;;;;;;;;;;4999332;28;20018;-60
2023/08/19 06:05:18;;;;;;;396.63;366.40;;;;;;;;;;5010022;28;20076;-59
2023/08/19 06:07:44;;;;;;;451.33;413.17;;;;;;;;;;5010863;28;20504;-60
2023/08/19 06:10:09;;;;;;;;;;;;;;;;;;5013156;28;20022;-62
2023/08/19 06:12:34;;;;;;;369.05;339.30;;;;;;;;;;5007279;28;19996;-59
2023/08/19 06:14:59;;;;;;;421.93;383.83;;;;;;;;;;4997109;28;20417;-59
2023/08/19 06:17:24;;;;;;;;;;;;;;;;;;5011484;28;20030;-58
2023/08/19 06:19:49;;;;;;;356.48;329.73;;;;;;;;;;5009639;28;19914;-59
2023/08/19 06:22:14;;;;;;;372.87;341.07;;;;;;;;;;5018568;28;20040;-59
2023/08/19 06:24:40;;;;;;;;;;;;;;;;;;5011544;28;20029;-59
2023/08/19 06:27:05;;;;;;;385.52;356.55;;;;;;;;;;5009549;28;20367;-59
2023/08/19 06:29:30;;;;;;;341.73;316.23;;;;;;;;;;5010726;28;20033;-59
2023/08/19 06:31:55;;;;;;;;;;;;;;;;;;5012484;28;20458;-60
2023/08/19 06:34:20;;;;;;;440.23;405.13;;;;;;;;;;5008822;28;19952;-59
2023/08/19 06:36:45;;;;;;;;;;;;;;;;;;5011713;28;20014;-59
2023/08/19 06:39:26;;;;;;;375.95;346.38;;;;;;;;;;5012094;28;19906;-59
2023/08/19 06:41:55;;;;;;;374.10;344.40;;;;;;;;;;5012178;28;20018;-59
2023/08/19 06:44:21;;;;;;;371.83;344.02;;;;;;;;;;5011642;28;20053;-59
2023/08/19 06:46:46;;;;;;;420.27;387.67;;;;;;;;;;5013749;28;20049;-59
2023/08/19 06:49:12;;;;;;;447.23;406.93;;;;;;;;;;5009594;28;20022;-59
2023/08/19 06:51:37;;;;;;;;;;;;;;;;;;5010321;28;20033;-58
2023/08/19 06:54:02;;;;;;;347.15;320.20;;;;;;;;;;5018003;28;19917;-58
2023/08/19 06:56:32;;;;;;;382.15;348.75;;;;;;;;;;5010852;28;20022;-60
2023/08/19 06:59:01;;;;;;;392.20;362.48;;;;;;;;;;5007323;28;20030;-59
2023/08/19 07:01:29;;;;;;;438.85;394.90;;;;;;;;;;5006202;28;20026;-58
2023/08/19 07:03:54;;;;;;;434.50;399.52;;;;;;;;;;5010439;28;20021;-58
2023/08/19 07:06:20;;;;;;;;;;;;;;;;;;5003634;28;20022;-59
2023/08/19 07:08:45;;;;;;;405.08;374.50;;;;;;;;;;5010646;28;19910;-58
2023/08/19 07:11:10;;;;;;;;;;;;;;;;;;5010797;28;20485;-59
2023/08/19 07:13:36;;;;;;;453.17;408.25;;;;;;;;;;5006758;28;19909;-59
2023/08/19 07:16:02;;;;;;;376.00;347.77;;;;;;;;;;5008842;28;20021;-58
2023/08/19 07:18:30;;;;;;;330.08;303.40;;;;;;;;;;5001319;28;20018;-58
2023/08/19 07:20:56;;;;;;;430.00;396.73;;;;;;;;;;5003566;28;20022;-59
2023/08/19 07:23:23;;;;;;;431.25;394.27;;;;;;;;;;5002945;28;20032;-59
2023/08/19 07:25:49;;;;;;;398.73;367.92;;;;;;;;;;5005667;28;20436;-58
2023/08/19 07:28:15;;;;;;;474.77;425.77;;;;;;;;;;5004724;28;20022;-57
2023/08/19 07:30:40;;;;;;;454.73;420.17;;;;;;;;;;4994231;28;20047;-58
2023/08/19 07:33:07;;;;;;;;;;;;;;;;;;5001336;28;20089;-58
2023/08/19 07:35:32;;;;;;;330.63;305.38;;;;;;;;;;5004614;28;19920;-58
2023/08/19 07:37:57;;;;;;;;;;;;;;;;;;4995804;28;20022;-59
2023/08/19 07:40:23;;;;;;;387.25;356.58;;;;;;;;;;5004872;28;19913;-59
2023/08/19 07:42:48;;;;;;;;;;;;;;;;;;5010774;28;20021;-58
2023/08/19 07:45:13;;;;;;;356.63;326.57;;;;;;;;;;5001970;28;19928;-59
2023/08/19 07:47:38;;;;;;;;;;;;;;;;;;5006071;28;20548;-59
2023/08/19 07:50:03;;;;;;;331.10;304.33;;;;;;;;;;5001999;28;19910;-59
2023/08/19 07:52:28;;;;;;;;;;;;;;;;;;5004501;28;20030;-58
2023/08/19 07:54:54;;;;;;;326.38;301.60;;;;;;;;;;5009748;28;19910;-58
2023/08/19 07:57:19;;;;;;;;;;;;;;;;;;5008591;28;20489;-59
2023/08/19 07:59:44;;;;;;;432.23;396.30;;;;;;;;;;5007102;28;19939;-58
2023/08/19 08:02:09;;;;;;;400.77;368.13;;;;;;;;;;5007427;28;20416;-60
2023/08/19 08:04:34;;;;;;;;;;;;;;;;;;5000583;28;20117;-59
2023/08/19 08:07:00;;;;;;;358.10;330.70;;;;;;;;;;5000542;28;19996;-59
2023/08/19 08:09:25;;;;;;;;;;;;;;;;;;4995158;28;20027;-59
2023/08/19 08:11:52;;;;;;;377.23;344.57;;;;;;;;;;5010418;28;20153;-58
2023/08/19 08:14:17;;;;;;;490.20;449.67;;;;;;;;;;4993547;28;20027;-59
2023/08/19 08:16:42;;;;;;;;;;;;;;;;;;4994214;28;20513;-59
2023/08/19 08:19:07;;;;;;;380.67;348.33;;;;;;;;;;5002684;28;20297;-60
2023/08/19 08:21:32;;;;;;;;;;;;;;;;;;5010662;28;20058;-60
2023/08/19 08:23:57;;;;;;;396.33;366.67;;;;;;;;;;5000642;28;19909;-59
2023/08/19 08:26:23;;;;;;;427.07;393.93;;;;;;;;;;5008188;28;20022;-57
2023/08/19 08:28:48;;;;;;;;;;;;;;;;;;4999977;28;20385;-57
2023/08/19 08:31:13;;;;;;;411.63;380.45;;;;;;;;;;4991057;28;19913;-58
2023/08/19 08:33:38;;;;;;;439.10;405.83;;;;;;;;;;4990888;28;20167;-59
2023/08/19 08:36:03;;;;;;;454.60;420.85;;;;;;;;;;4997016;28;20025;-58
2023/08/19 08:38:29;;;;;;;469.47;432.40;;;;;;;;;;5000803;28;20483;-58
2023/08/19 08:40:54;;;;;;;531.13;490.70;;;;;;;;;;5002622;28;20025;-58
2023/08/19 08:43:20;;;;;;;459.42;424.08;;;;;;;;;;5011189;28;20036;-57
2023/08/19 08:45:45;;;;;;;;;;;;;;;;;;4996263;28;20026;-57
2023/08/19 08:48:11;;;;;;;520.50;479.95;;;;;;;;;;4994482;28;19916;-57
2023/08/19 08:50:36;;;;;;;469.45;434.58;;;;;;;;;;5007228;28;20497;-57
2023/08/19 08:53:01;;;;;;;478.33;441.50;;;;;;;;;;5007402;28;20060;-57
2023/08/19 08:55:27;;;;;;;455.17;416.85;;;;;;;;;;5005846;28;20377;-57
2023/08/19 08:57:52;;;;;;;;;;;;;;;;;;5014558;28;20453;-58
2023/08/19 09:00:17;;;;;;;476.52;440.63;;;;;;;;;;5014140;28;19909;-57
2023/08/19 09:02:42;;;;;;;;;;;;;;;;;;5014231;28;20527;-58
2023/08/19 09:05:08;;;;;;;425.30;391.80;;;;;;;;;;5010629;28;19916;-57
2023/08/19 09:07:38;;;;;;;509.52;470.55;;;;;;;;;;5002666;28;20118;-57
2023/08/19 09:10:06;;;;;;;536.13;496.33;;;;;;;;;;5008049;28;20385;-58
2023/08/19 09:12:33;;;;;;;457.38;417.45;;;;;;;;;;5013780;28;20045;-57
2023/08/19 09:15:02;;;;;;;457.10;422.48;;;;;;;;;;5013642;28;20026;-57
2023/08/19 09:17:27;;;;;;;446.63;413.08;;;;;;;;;;5011521;28;20358;-57
2023/08/19 09:19:52;;;;;;;443.57;407.50;;;;;;;;;;5005142;28;20017;-58
2023/08/19 09:22:17;;;;;;;445.23;411.07;;;;;;;;;;5005830;28;20118;-57
2023/08/19 09:24:44;;;;;;;516.10;476.33;;;;;;;;;;5002239;28;20026;-58
2023/08/19 09:27:09;;;;;;;470.83;435.13;;;;;;;;;;4993601;28;20541;-58
2023/08/19 09:29:35;;;;;;;455.67;420.53;;;;;;;;;;4996111;28;20045;-58
2023/08/19 09:32:00;;;;;;;444.67;410.00;;;;;;;;;;5003828;28;20030;-56
2023/08/19 09:34:25;;;;;;;;;;;;;;;;;;5002264;28;20431;-57
2023/08/19 09:36:57;;;;;;;458.57;422.83;;;;;;;;;;4993387;28;19992;-57
2023/08/19 09:39:25;;;;;;;453.27;418.95;;;;;;;;;;4993921;28;20033;-57
2023/08/19 09:41:56;;;;;;;471.25;427.95;;;;;;;;;;4993795;28;20030;-58
2023/08/19 09:44:21;;;;;;;517.88;478.30;;;;;;;;;;5006067;28;20022;-57
2023/08/19 09:46:46;;;;;;;486.00;450.23;;;;;;;;;;4999979;28;20034;-58
2023/08/19 09:49:19;;;;;;;482.03;444.80;;;;;;;;;;4998484;28;20438;-57
2023/08/19 09:51:51;;;;;;;560.58;516.75;;;;;;;;;;4992938;28;20030;-57
2023/08/19 09:54:16;;;;;;;563.95;517.47;;;;;;;;;;4993548;28;20033;-57
2023/08/19 09:56:41;;;;;;;612.63;565.67;;;;;;;;;;4993000;28;20463;-57
2023/08/19 09:59:07;;;;;;;595.77;548.47;;;;;;;;;;5004670;28;20034;-57
2023/08/19 10:01:32;;;;;;;553.33;512.00;;;;;;;;;;4996660;28;20477;-57
2023/08/19 10:03:58;;;;;;;519.97;481.02;;;;;;;;;;5012540;28;20982;-57
2023/08/19 10:06:26;;;;;;;506.93;463.80;;;;;;;;;;5011449;28;20053;-57
2023/08/19 10:08:59;;;;;;;476.73;440.02;;;;;;;;;;4997354;28;20026;-56
2023/08/19 10:11:25;;;;;;;535.92;492.75;;;;;;;;;;5002854;28;20025;-57
2023/08/19 10:13:51;;;;;;;676.28;623.25;;;;;;;;;;4996863;28;20018;-56
2023/08/19 10:16:16;;;;;;;506.70;469.23;;;;;;;;;;5012478;28;20100;-57
2023/08/19 10:18:44;;;;;;;631.67;580.90;;;;;;;;;;5013205;28;20022;-57
2023/08/19 10:21:11;;;;;;;540.85;498.08;;;;;;;;;;5012684;28;20073;-57
2023/08/19 10:23:38;;;;;;;535.65;495.63;;;;;;;;;;5000931;28;20773;-57
2023/08/19 10:26:03;;;;;;;558.38;515.17;;;;;;;;;;5006727;28;20026;-57
2023/08/19 10:28:28;;;;;;;525.60;482.77;;;;;;;;;;5006450;28;20366;-57
2023/08/19 10:31:03;;;;;;;530.90;489.87;;;;;;;;;;4992621;28;20489;-57
2023/08/19 10:33:32;;;;;;;517.70;475.67;;;;;;;;;;5001064;28;20018;-58
2023/08/19 10:36:01;;;;;;;628.17;575.75;;;;;;;;;;5003789;28;20469;-58
2023/08/19 10:38:40;;;;;;;618.65;563.45;;;;;;;;;;5011177;28;20509;-57
2023/08/19 10:41:14;;;;;;;601.88;550.83;;;;;;;;;;5007032;28;20038;-57
2023/08/19 10:43:46;;;;;;;707.90;651.45;;;;;;;;;;5011088;28;20425;-58
2023/08/19 10:46:15;;;;;;;590.35;543.17;;;;;;;;;;5011624;28;20017;-58
2023/08/19 10:48:44;;;;;;;503.75;465.25;;;;;;;;;;5011874;28;20028;-57
2023/08/19 10:51:09;;;;;;;707.75;645.65;;;;;;;;;;5011909;28;20024;-57
2023/08/19 10:53:35;;;;;;;570.27;528.23;;;;;;;;;;5011924;28;20014;-57
2023/08/19 10:56:00;;;;;;;549.25;506.88;;;;;;;;;;5004323;28;20027;-57
2023/08/19 10:58:26;;;;;;;524.37;485.40;;;;;;;;;;5011579;28;20034;-57
2023/08/19 11:00:51;;;;;;;587.13;541.70;;;;;;;;;;5015587;28;20580;-57
2023/08/19 11:03:17;;;;;;;546.30;502.53;;;;;;;;;;5011704;28;20025;-59
2023/08/19 11:05:48;;;;;;;656.22;602.05;;;;;;;;;;5013255;28;20516;-58
2023/08/19 11:08:14;;;;;;;491.15;454.85;;;;;;;;;;5000082;28;20037;-57
2023/08/19 11:10:39;;;;;;;645.80;591.43;;;;;;;;;;5008731;28;20022;-58
2023/08/19 11:13:05;;;;;;;505.53;465.27;;;;;;;;;;5007715;28;20030;-57
2023/08/19 11:15:30;;;;;;;603.03;553.70;;;;;;;;;;5006302;28;20859;-59
2023/08/19 11:17:55;;;;;;;552.27;507.87;;;;;;;;;;5005340;28;20159;-57
2023/08/19 11:20:26;;;;;;;587.80;544.27;;;;;;;;;;5009364;28;20026;-59
2023/08/19 11:22:52;;;;;;;575.72;529.50;;;;;;;;;;5008860;28;20440;-59
2023/08/19 11:25:17;;;;;;;523.33;483.13;;;;;;;;;;5002440;28;20034;-58
2023/08/19 11:27:43;;;;;;;564.22;519.75;;;;;;;;;;5000600;28;20038;-58
2023/08/19 11:30:09;;;;;;;555.97;514.42;;;;;;;;;;5002984;28;20018;-58
2023/08/19 11:32:35;;;;;;;560.97;518.55;;;;;;;;;;5005437;28;20033;-58
2023/08/19 11:35:00;;;;;;;636.92;578.53;;;;;;;;;;5005947;28;20018;-58
2023/08/19 11:37:27;;;;;;;555.13;513.17;;;;;;;;;;5003790;28;20154;-58
2023/08/19 11:39:52;;;;;;;560.50;518.00;;;;;;;;;;5000503;28;20081;-58
2023/08/19 11:42:17;;;;;;;521.97;478.57;;;;;;;;;;4995925;28;20592;-58
2023/08/19 11:44:43;;;;;;;620.63;574.40;;;;;;;;;;5007194;28;20053;-59
2023/08/19 11:47:08;;;;;;;524.10;484.27;;;;;;;;;;5003222;28;20079;-58
2023/08/19 11:49:33;;;;;;;594.50;547.63;;;;;;;;;;5009654;28;20742;-59
2023/08/19 11:51:59;;;;;;;637.93;580.87;;;;;;;;;;5012353;28;20541;-57
2023/08/19 11:54:24;;;;;;;701.57;636.63;;;;;;;;;;5005398;28;20021;-58
2023/08/19 11:56:50;;;;;;;608.20;557.00;;;;;;;;;;5001016;28;20113;-58
2023/08/19 11:59:16;;;;;;;657.70;599.83;;;;;;;;;;4995020;28;20722;-57
2023/08/19 12:01:41;;;;;;;567.47;524.63;;;;;;;;;;5008177;28;20034;-58
2023/08/19 12:04:11;;;;;;;541.67;501.87;;;;;;;;;;4999472;28;20013;-58
2023/08/19 12:06:37;;;;;;;545.15;503.55;;;;;;;;;;5006203;28;20523;-57
2023/08/19 12:09:02;;;;;;;642.10;590.58;;;;;;;;;;4997862;28;20465;-57
2023/08/19 12:11:27;;;;;;;602.42;555.00;;;;;;;;;;5003242;28;20026;-58
2023/08/19 12:13:53;;;;;;;630.00;576.40;;;;;;;;;;5004697;28;20014;-57
2023/08/19 12:16:19;;;;;;;580.92;535.90;;;;;;;;;;5007284;28;20029;-58
2023/08/19 12:18:44;;;;;;;656.80;598.40;;;;;;;;;;5009821;28;20060;-59
2023/08/19 12:21:09;;;;;;;581.58;529.75;;;;;;;;;;5011250;28;20017;-59
2023/08/19 12:23:34;;;;;;;649.87;595.80;;;;;;;;;;5004626;28;20058;-58
2023/08/19 12:26:00;;;;;;;596.93;546.30;;;;;;;;;;5006563;28;20034;-58
2023/08/19 12:28:26;;;;;;;543.55;501.88;;;;;;;;;;5007501;28;20109;-58
2023/08/19 12:30:51;;;;;;;502.65;459.40;;;;;;;;;;5009853;28;20022;-58
2023/08/19 12:33:17;;;;;;;594.47;547.38;;;;;;;;;;5010088;28;20092;-57
2023/08/19 12:35:44;;;;;;;538.17;490.85;;;;;;;;;;5010581;28;20112;-58
2023/08/19 12:38:11;;;;;;;528.83;482.58;;;;;;;;;;5010606;28;20088;-58
2023/08/19 12:40:36;;;;;;;557.03;513.42;;;;;;;;;;5001680;28;20030;-59
2023/08/19 12:43:01;;;;;;;677.35;614.38;;;;;;;;;;5001175;28;20029;-57
2023/08/19 12:45:27;;;;;;;584.73;537.03;;;;;;;;;;5006150;28;20022;-56
2023/08/19 12:47:52;;;;;;;556.72;513.97;;;;;;;;;;5005502;28;20429;-58
2023/08/19 12:50:18;;;;;;;571.75;526.38;;;;;;;;;;5013365;28;20021;-57
2023/08/19 12:52:44;;;;;;;563.47;519.63;;;;;;;;;;5014225;28;20026;-57
2023/08/19 12:55:09;;;;;;;592.47;546.28;;;;;;;;;;5010543;28;20076;-57
2023/08/19 12:57:42;;;;;;;514.43;474.60;;;;;;;;;;4997821;28;20018;-59
2023/08/19 13:00:08;;;;;;;526.55;483.65;;;;;;;;;;5012307;28;20037;-57
2023/08/19 13:02:33;;;;;;;486.80;446.00;;;;;;;;;;5008045;28;20030;-58
2023/08/19 13:04:59;;;;;;;506.40;462.07;;;;;;;;;;5014052;28;20508;-57
2023/08/19 13:07:24;;;;;;;536.47;491.23;;;;;;;;;;5013550;28;20083;-57
2023/08/19 13:09:50;;;;;;;558.53;515.70;;;;;;;;;;5012140;28;20018;-58
2023/08/19 13:12:15;;;;;;;565.30;517.33;;;;;;;;;;5016516;28;20126;-59
2023/08/19 13:14:40;;;;;;;489.23;449.27;;;;;;;;;;5015348;28;20030;-57
2023/08/19 13:17:06;;;;;;;623.92;569.70;;;;;;;;;;5010247;28;20014;-57
2023/08/19 13:19:33;;;;;;;526.67;483.10;;;;;;;;;;5001018;28;20097;-58
2023/08/19 13:21:58;;;;;;;638.60;579.05;;;;;;;;;;4994135;28;20015;-58
2023/08/19 13:24:23;;;;;;;512.87;469.37;;;;;;;;;;4994231;28;20500;-58
2023/08/19 13:26:49;;;;;;;572.80;528.25;;;;;;;;;;5006528;28;20022;-58
2023/08/19 13:29:14;;;;;;;498.83;454.60;;;;;;;;;;5007341;28;20519;-58
2023/08/19 13:31:39;;;;;;;509.93;470.27;;;;;;;;;;5009089;28;20037;-58
2023/08/19 13:34:04;;;;;;;590.33;547.07;;;;;;;;;;5004736;28;20014;-58
2023/08/19 13:36:29;;;;;;;626.07;571.87;;;;;;;;;;4998368;28;20025;-58
2023/08/19 13:38:56;;;;;;;625.10;572.93;;;;;;;;;;5005163;28;20662;-58
2023/08/19 13:41:22;;;;;;;613.78;560.08;;;;;;;;;;5009207;28;20452;-57
2023/08/19 13:43:47;;;;;;;565.60;522.90;;;;;;;;;;5013070;28;20014;-57
2023/08/19 13:46:12;;;;;;;521.87;477.00;;;;;;;;;;5009288;28;20674;-57
2023/08/19 13:48:37;;;;;;;633.23;579.87;;;;;;;;;;5010205;28;20018;-59
2023/08/19 13:51:02;;;;;;;639.93;581.07;;;;;;;;;;5011533;28;20057;-58
2023/08/19 13:53:28;;;;;;;608.60;555.33;;;;;;;;;;5011452;28;20053;-58
2023/08/19 13:55:53;;;;;;;531.40;491.73;;;;;;;;;;5010222;28;20099;-57